createdAt,value
2022-12-14T00:01:26.732Z,-1.42
2022-12-14T00:03:55.260Z,-1.42
2022-12-14T00:06:25.424Z,-1.41
2022-12-14T00:08:55.613Z,-1.43
2022-12-14T00:11:23.013Z,-1.41
2022-12-14T00:13:54.098Z,-1.40
2022-12-14T00:16:24.164Z,-1.40
2022-12-14T00:18:53.348Z,-1.40
2022-12-14T00:21:20.752Z,-1.38
2022-12-14T00:23:50.082Z,-1.39
2022-12-14T00:26:19.652Z,-1.35
2022-12-14T00:28:49.134Z,-1.33
2022-12-14T00:31:18.355Z,-1.34
2022-12-14T00:33:45.263Z,-1.36
2022-12-14T00:36:13.845Z,-1.37
2022-12-14T00:38:41.218Z,-1.33
2022-12-14T00:41:09.486Z,-1.35
2022-12-14T00:43:36.843Z,-1.33
2022-12-14T00:46:05.730Z,-1.32
2022-12-14T00:48:35.066Z,-1.31
2022-12-14T00:51:02.216Z,-1.30
2022-12-14T00:53:29.112Z,-1.29
2022-12-14T00:55:57.164Z,-1.26
2022-12-14T00:58:25.226Z,-1.29
2022-12-14T01:01:00.338Z,-1.29
2022-12-14T01:03:27.812Z,-1.29
2022-12-14T01:05:56.618Z,-1.29
2022-12-14T01:08:24.302Z,-1.25
2022-12-14T01:10:51.195Z,-1.23
2022-12-14T01:13:18.192Z,-1.23
2022-12-14T01:15:45.043Z,-1.21
2022-12-14T01:18:11.927Z,-1.22
2022-12-14T01:20:38.727Z,-1.18
2022-12-14T01:23:06.860Z,-1.16
2022-12-14T01:25:34.048Z,-1.17
2022-12-14T01:28:00.901Z,-1.15
2022-12-14T01:30:27.872Z,-1.14
2022-12-14T01:32:58.817Z,-1.15
2022-12-14T01:35:25.891Z,-1.13
2022-12-14T01:37:52.726Z,-1.14
2022-12-14T01:40:20.965Z,-1.13
2022-12-14T01:42:48.107Z,-1.12
2022-12-14T01:45:19.912Z,-1.09
2022-12-14T01:47:52.198Z,-1.06
2022-12-14T01:50:32.250Z,-1.02
2022-12-14T01:53:06.013Z,-1.00
2022-12-14T01:55:41.192Z,-1.03
2022-12-14T01:58:18.606Z,-1.01
2022-12-14T02:00:45.998Z,-0.98
2022-12-14T02:03:19.804Z,-0.98
2022-12-14T02:05:52.723Z,-0.99
2022-12-14T02:08:23.932Z,-0.99
2022-12-14T02:10:55.215Z,-1.03
2022-12-14T02:13:29.200Z,-1.10
2022-12-14T02:15:56.826Z,-1.04
2022-12-14T02:18:26.501Z,-1.05
2022-12-14T02:21:21.219Z,-1.17
2022-12-14T02:24:30.040Z,-1.24
2022-12-14T02:27:15.251Z,-1.23
2022-12-14T02:30:02.647Z,-1.20
2022-12-14T02:33:20.108Z,-1.24
2022-12-14T02:35:57.494Z,-1.36
2022-12-14T02:38:45.775Z,-1.32
2022-12-14T02:41:23.369Z,-1.24
2022-12-14T02:44:04.277Z,-1.21
2022-12-14T02:46:45.094Z,-1.22
2022-12-14T02:49:38.272Z,-1.26
2022-12-14T02:52:19.865Z,-1.19
2022-12-14T02:54:57.769Z,-1.20
2022-12-14T02:57:32.530Z,-1.15
2022-12-14T03:00:05.626Z,-1.23
2022-12-14T03:02:39.841Z,-1.25
2022-12-14T03:05:10.417Z,-1.27
2022-12-14T03:07:45.592Z,-1.36
2022-12-14T03:10:35.655Z,-1.43
2022-12-14T03:13:16.828Z,-1.47
2022-12-14T03:15:53.522Z,-1.48
2022-12-14T03:18:28.666Z,-1.45
2022-12-14T03:20:59.548Z,-1.39
2022-12-14T03:23:35.011Z,-1.34
2022-12-14T03:26:11.775Z,-1.41
2022-12-14T03:28:47.024Z,-1.36
2022-12-14T03:31:22.127Z,-1.32
2022-12-14T03:33:58.684Z,-1.35
2022-12-14T03:36:33.817Z,-1.33
2022-12-14T03:39:07.476Z,-1.32
2022-12-14T03:41:48.969Z,-1.32
2022-12-14T03:44:31.405Z,-1.30
2022-12-14T03:47:11.181Z,-1.30
2022-12-14T03:49:58.810Z,-1.26
2022-12-14T03:52:36.415Z,-1.25
2022-12-14T03:55:23.253Z,-1.26
2022-12-14T03:58:11.837Z,-1.26
2022-12-14T04:00:51.593Z,-1.23
2022-12-14T04:03:33.412Z,-1.26
2022-12-14T04:06:08.782Z,-1.23
2022-12-14T04:08:45.188Z,-1.24
2022-12-14T04:11:16.628Z,-1.24
2022-12-14T04:13:56.005Z,-1.19
2022-12-14T04:16:32.995Z,-1.20
2022-12-14T04:19:09.691Z,-1.19
2022-12-14T04:21:45.837Z,-1.18
2022-12-14T04:24:21.920Z,-1.13
2022-12-14T04:26:56.451Z,-1.11
2022-12-14T04:29:29.731Z,-1.11
2022-12-14T04:32:03.790Z,-1.15
2022-12-14T04:34:35.968Z,-1.13
2022-12-14T04:37:12.120Z,-1.05
2022-12-14T04:39:48.910Z,-1.03
2022-12-14T04:42:20.157Z,-0.99
2022-12-14T04:44:53.381Z,-0.98
2022-12-14T04:47:28.742Z,-0.95
2022-12-14T04:50:04.084Z,-0.98
2022-12-14T04:52:40.751Z,-0.99
2022-12-14T04:55:24.127Z,-1.00
2022-12-14T04:57:59.564Z,-0.95
2022-12-14T05:00:29.516Z,-0.98
2022-12-14T05:03:20.421Z,-1.07
2022-12-14T05:06:05.656Z,-1.01
2022-12-14T05:09:03.336Z,-0.99
2022-12-14T05:11:53.078Z,-0.92
2022-12-14T05:14:32.123Z,-0.89
2022-12-14T05:17:02.293Z,-0.90
2022-12-14T05:19:30.782Z,-0.83
2022-12-14T05:22:04.627Z,-0.81
2022-12-14T05:27:44.194Z,-0.74
2022-12-14T05:30:12.457Z,-0.72
2022-12-14T05:32:39.967Z,-0.72
2022-12-14T05:35:10.178Z,-0.74
2022-12-14T05:37:37.526Z,-0.70
2022-12-14T05:40:06.259Z,-0.66
2022-12-14T05:42:34.869Z,-0.64
2022-12-14T05:45:22.110Z,-0.59
2022-12-14T05:47:49.150Z,-0.61
2022-12-14T05:50:16.255Z,-0.58
2022-12-14T05:52:42.985Z,-0.56
2022-12-14T05:55:09.899Z,-0.68
2022-12-14T05:57:36.644Z,-0.58
2022-12-14T06:00:04.218Z,-0.59
2022-12-14T06:02:33.167Z,-0.62
2022-12-14T06:05:00.296Z,-0.60
2022-12-14T06:07:28.340Z,-0.54
2022-12-14T06:09:55.444Z,-0.62
2022-12-14T06:12:22.509Z,-0.66
2022-12-14T06:14:49.282Z,-0.64
2022-12-14T06:17:16.081Z,-0.60
2022-12-14T06:19:49.742Z,-0.57
2022-12-14T06:22:17.675Z,-0.54
2022-12-14T06:24:44.490Z,-0.47
2022-12-14T06:27:11.330Z,-0.37
2022-12-14T06:29:38.122Z,-0.28
2022-12-14T06:32:05.459Z,-0.21
2022-12-14T06:34:36.896Z,-0.45
2022-12-14T06:37:06.810Z,-0.45
2022-12-14T06:39:34.002Z,-0.34
2022-12-14T06:42:00.780Z,-0.24
2022-12-14T06:44:27.774Z,-0.31
2022-12-14T06:46:54.703Z,-0.33
2022-12-14T06:49:22.296Z,-0.25
2022-12-14T06:51:49.394Z,-0.21
2022-12-14T06:54:19.227Z,-0.18
2022-12-14T06:56:47.603Z,-0.42
2022-12-14T06:59:16.044Z,-0.53
2022-12-14T07:01:43.153Z,-0.58
2022-12-14T07:04:10.247Z,-0.61
2022-12-14T07:06:40.187Z,-0.64
2022-12-14T07:09:11.929Z,-0.59
2022-12-14T07:11:41.544Z,-0.50
2022-12-14T07:14:16.498Z,-0.38
2022-12-14T07:16:48.315Z,-0.52
2022-12-14T07:19:18.059Z,-0.64
2022-12-14T07:21:46.145Z,-0.78
2022-12-14T07:24:14.191Z,-0.82
2022-12-14T07:26:42.730Z,-0.67
2022-12-14T07:29:09.889Z,-0.63
2022-12-14T07:31:37.157Z,-0.55
2022-12-14T07:34:04.324Z,-0.58
2022-12-14T07:36:35.153Z,-0.58
2022-12-14T07:39:02.609Z,-0.46
2022-12-14T07:41:31.105Z,-0.48
2022-12-14T07:44:00.577Z,-0.55
2022-12-14T07:46:30.595Z,-0.54
2022-12-14T07:48:59.225Z,-0.55
2022-12-14T07:51:29.754Z,-0.59
2022-12-14T07:53:58.933Z,-0.51
2022-12-14T07:56:29.042Z,-0.45
2022-12-14T07:59:00.280Z,-0.39
2022-12-14T08:01:33.583Z,-0.51
2022-12-14T08:04:08.351Z,-0.58
2022-12-14T08:06:38.624Z,-0.44
2022-12-14T08:09:08.983Z,-0.53
2022-12-14T08:11:36.623Z,-0.63
2022-12-14T08:14:09.132Z,-0.52
2022-12-14T08:16:44.508Z,-0.39
2022-12-14T08:19:12.603Z,-0.29
2022-12-14T08:21:40.661Z,-0.30
2022-12-14T08:24:10.909Z,-0.24
2022-12-14T08:26:40.875Z,-0.20
2022-12-14T08:29:11.235Z,-0.55
2022-12-14T08:31:39.323Z,-0.93
2022-12-14T08:34:06.747Z,-0.89
2022-12-14T08:36:35.312Z,-0.88
2022-12-14T08:39:06.142Z,-0.87
2022-12-14T08:41:34.075Z,-1.06
2022-12-14T08:44:03.394Z,-1.06
2022-12-14T08:46:35.158Z,-1.03
2022-12-14T08:49:02.057Z,-1.00
2022-12-14T08:51:29.583Z,-0.93
2022-12-14T08:53:57.423Z,-0.75
2022-12-14T08:56:27.308Z,-0.67
2022-12-14T08:58:54.760Z,-0.56
2022-12-14T09:01:30.292Z,-0.50
2022-12-14T09:04:05.111Z,-0.52
2022-12-14T09:06:35.021Z,-0.44
2022-12-14T09:09:01.856Z,-0.37
2022-12-14T09:11:28.978Z,-0.32
2022-12-14T09:13:56.943Z,-0.26
2022-12-14T09:16:25.833Z,-0.36
2022-12-14T09:18:53.894Z,-0.52
2022-12-14T09:21:22.338Z,-0.62
2022-12-14T09:23:52.604Z,-0.49
2022-12-14T09:26:23.725Z,-0.39
2022-12-14T09:28:54.442Z,-0.34
2022-12-14T09:31:25.981Z,-0.20
2022-12-14T09:33:53.667Z,-0.09
2022-12-14T09:36:24.459Z,-0.03
2022-12-14T09:38:52.712Z,-0.02
2022-12-14T09:41:36.394Z,0.00
2022-12-14T09:44:18.884Z,-0.09
2022-12-14T09:46:59.228Z,-0.03
2022-12-14T09:49:30.803Z,-0.12
2022-12-14T09:52:01.459Z,-0.05
2022-12-14T09:54:34.154Z,-0.01
2022-12-14T09:57:07.017Z,0.03
2022-12-14T09:59:34.622Z,0.03
2022-12-14T10:02:31.051Z,0.04
2022-12-14T10:05:29.778Z,0.08
2022-12-14T10:08:10.614Z,-0.14
2022-12-14T10:10:53.038Z,-0.07
2022-12-14T10:13:35.452Z,0.01
2022-12-14T10:16:18.514Z,-0.01
2022-12-14T10:19:13.394Z,0.01
2022-12-14T10:21:49.608Z,0.09
2022-12-14T10:24:25.762Z,0.19
2022-12-14T10:26:55.218Z,0.31
2022-12-14T10:29:32.650Z,0.32
2022-12-14T10:32:20.427Z,0.36
2022-12-14T10:34:48.408Z,0.37
2022-12-14T10:37:27.249Z,0.40
2022-12-14T10:40:22.095Z,0.40
2022-12-14T10:43:28.722Z,0.34
2022-12-14T10:46:14.294Z,0.26
2022-12-14T10:48:54.711Z,0.29
2022-12-14T10:51:30.563Z,0.28
2022-12-14T10:54:17.620Z,0.29
2022-12-14T10:56:50.293Z,0.25
2022-12-14T10:59:33.624Z,0.23
2022-12-14T11:02:08.647Z,0.27
2022-12-14T11:04:39.298Z,0.33
2022-12-14T11:07:09.365Z,0.30
2022-12-14T11:09:37.920Z,0.28
2022-12-14T11:12:16.740Z,0.33
2022-12-14T11:14:55.130Z,0.37
2022-12-14T11:17:41.435Z,0.42
2022-12-14T11:20:19.588Z,0.44
2022-12-14T11:22:49.940Z,0.46
2022-12-14T11:25:38.471Z,0.47
2022-12-14T11:28:35.929Z,0.54
2022-12-14T11:31:07.478Z,0.55
2022-12-14T11:33:39.325Z,0.57
2022-12-14T11:36:08.413Z,0.49
2022-12-14T11:38:35.658Z,0.47
2022-12-14T11:41:10.983Z,0.47
2022-12-14T11:43:40.609Z,0.56
2022-12-14T11:46:07.873Z,0.60
2022-12-14T11:48:35.241Z,0.73
2022-12-14T11:51:12.510Z,0.84
2022-12-14T11:53:40.659Z,0.89
2022-12-14T11:56:15.710Z,0.82
2022-12-14T11:58:53.518Z,0.87
2022-12-14T12:01:26.552Z,0.85
2022-12-14T12:03:57.840Z,0.88
2022-12-14T12:06:29.077Z,0.89
2022-12-14T12:09:01.944Z,0.87
2022-12-14T12:11:34.496Z,0.92
2022-12-14T12:14:25.845Z,0.92
2022-12-14T12:16:53.026Z,0.90
2022-12-14T12:19:30.001Z,0.94
2022-12-14T12:22:03.161Z,0.89
2022-12-14T12:25:00.950Z,0.78
2022-12-14T12:27:28.464Z,0.80
2022-12-14T12:30:06.178Z,0.69
2022-12-14T12:32:42.483Z,0.65
2022-12-14T12:35:18.430Z,0.53
2022-12-14T12:37:51.572Z,0.65
2022-12-14T12:40:25.681Z,0.76
2022-12-14T12:43:02.142Z,0.86
2022-12-14T12:45:39.161Z,0.89
2022-12-14T12:48:15.451Z,0.80
2022-12-14T12:50:49.869Z,0.79
2022-12-14T12:53:26.047Z,0.79
2022-12-14T12:56:03.068Z,0.72
2022-12-14T12:58:35.370Z,0.52
2022-12-14T13:01:19.154Z,0.34
2022-12-14T13:03:52.383Z,0.37
2022-12-14T13:06:27.546Z,0.34
2022-12-14T13:08:59.406Z,0.40
2022-12-14T13:11:39.671Z,0.50
2022-12-14T13:14:24.891Z,0.57
2022-12-14T13:16:55.346Z,0.58
2022-12-14T13:19:54.767Z,0.64
2022-12-14T13:22:27.598Z,0.61
2022-12-14T13:25:00.145Z,0.61
2022-12-14T13:28:12.356Z,0.57
2022-12-14T13:31:09.654Z,0.46
2022-12-14T13:34:15.073Z,0.42
2022-12-14T13:37:11.611Z,0.35
2022-12-14T13:40:14.846Z,0.24
2022-12-14T13:42:59.671Z,0.27
2022-12-14T13:45:36.561Z,0.29
2022-12-14T13:48:14.577Z,0.30
2022-12-14T13:50:57.703Z,0.36
2022-12-14T13:53:36.270Z,0.43
2022-12-14T13:56:05.099Z,0.41
2022-12-14T13:58:38.876Z,0.36
2022-12-14T14:01:07.047Z,0.29
2022-12-14T14:04:19.594Z,0.29
2022-12-14T14:06:49.271Z,0.19
2022-12-14T14:10:03.565Z,0.20
2022-12-14T14:12:40.292Z,0.27
2022-12-14T14:16:03.981Z,0.30
2022-12-14T14:18:32.123Z,0.32
2022-12-14T14:21:52.573Z,0.28
2022-12-14T14:24:27.483Z,0.34
2022-12-14T14:27:10.958Z,0.40
2022-12-14T14:29:47.575Z,0.43
2022-12-14T14:32:41.572Z,0.47
2022-12-14T14:35:27.118Z,0.42
2022-12-14T14:37:58.307Z,0.44
2022-12-14T14:40:51.406Z,0.40
2022-12-14T14:43:29.046Z,0.45
2022-12-14T14:46:02.196Z,0.55
2022-12-14T14:48:35.297Z,0.53
2022-12-14T14:51:19.308Z,0.39
2022-12-14T14:53:50.400Z,0.29
2022-12-14T14:56:37.239Z,0.30
2022-12-14T14:59:50.612Z,0.19
2022-12-14T15:02:33.503Z,0.28
2022-12-14T15:05:40.948Z,0.33
2022-12-14T15:07:54.082Z,0.35
2022-12-14T15:10:32.320Z,0.24
2022-12-14T15:13:06.515Z,0.26
2022-12-14T15:15:41.236Z,0.30
2022-12-14T15:18:19.211Z,0.34
2022-12-14T15:20:56.965Z,0.39
2022-12-14T15:23:24.860Z,0.39
2022-12-14T15:26:01.394Z,0.38
2022-12-14T15:28:29.982Z,0.34
2022-12-14T15:30:58.664Z,0.34
2022-12-14T15:33:30.968Z,0.36
2022-12-14T15:36:05.308Z,0.39
2022-12-14T15:38:35.433Z,0.39
2022-12-14T15:41:05.115Z,0.41
2022-12-14T15:43:44.532Z,0.40
2022-12-14T15:46:17.611Z,0.39
2022-12-14T15:48:45.270Z,0.38
2022-12-14T15:51:17.883Z,0.34
2022-12-14T15:53:49.897Z,0.39
2022-12-14T15:56:26.902Z,0.43
2022-12-14T15:58:58.632Z,0.44
2022-12-14T16:01:31.570Z,0.47
2022-12-14T16:04:03.862Z,0.47
2022-12-14T16:06:37.986Z,0.47
2022-12-14T16:09:14.649Z,0.47
2022-12-14T16:11:47.061Z,0.42
2022-12-14T16:14:24.976Z,0.44
2022-12-14T16:16:53.210Z,0.42
2022-12-14T16:19:28.614Z,0.44
2022-12-14T16:22:21.609Z,0.44
2022-12-14T16:25:13.930Z,0.42
2022-12-14T16:27:44.645Z,0.39
2022-12-14T16:30:28.029Z,0.32
2022-12-14T16:33:14.947Z,0.30
2022-12-14T16:35:42.545Z,0.31
2022-12-14T16:38:14.781Z,0.29
2022-12-14T16:40:52.681Z,0.28
2022-12-14T16:43:29.593Z,0.29
2022-12-14T16:46:15.456Z,0.30
2022-12-14T16:48:50.234Z,0.29
2022-12-14T16:52:05.818Z,0.27
2022-12-14T16:54:29.067Z,0.22
2022-12-14T16:57:02.305Z,0.20
2022-12-14T16:59:40.350Z,0.23
2022-12-14T17:02:30.137Z,0.22
2022-12-14T17:05:00.231Z,0.25
2022-12-14T17:07:31.355Z,0.26
2022-12-14T17:09:58.293Z,0.28
2022-12-14T17:12:26.301Z,0.30
2022-12-14T17:14:53.768Z,0.33
2022-12-14T17:17:32.277Z,0.35
2022-12-14T17:19:59.709Z,0.37
2022-12-14T17:22:31.500Z,0.36
2022-12-14T17:24:58.963Z,0.38
2022-12-14T17:27:26.547Z,0.38
2022-12-14T17:29:55.327Z,0.39
2022-12-14T17:32:29.033Z,0.39
2022-12-14T17:34:56.520Z,0.36
2022-12-14T17:37:24.643Z,0.33
2022-12-14T17:39:52.247Z,0.35
2022-12-14T17:42:22.120Z,0.35
2022-12-14T17:44:55.385Z,0.35
2022-12-14T17:47:24.791Z,0.33
2022-12-14T17:49:51.630Z,0.19
2022-12-14T17:52:21.302Z,0.13
2022-12-14T17:54:48.310Z,0.14
2022-12-14T17:57:17.399Z,0.14
2022-12-14T17:59:47.516Z,0.15
2022-12-14T18:02:31.914Z,0.20
2022-12-14T18:04:59.537Z,0.20
2022-12-14T18:07:27.560Z,0.18
2022-12-14T18:09:54.436Z,0.26
2022-12-14T18:12:23.875Z,0.30
2022-12-14T18:14:51.307Z,0.27
2022-12-14T18:17:19.084Z,0.30
2022-12-14T18:19:47.797Z,0.29
2022-12-14T18:22:16.861Z,0.34
2022-12-14T18:24:43.661Z,0.36
2022-12-14T18:27:12.954Z,0.39
2022-12-14T18:29:39.827Z,0.42
2022-12-14T18:32:06.607Z,0.42
2022-12-14T18:34:33.410Z,0.42
2022-12-14T18:37:01.899Z,0.41
2022-12-14T18:39:28.674Z,0.42
2022-12-14T18:41:55.694Z,0.42
2022-12-14T18:44:22.600Z,0.43
2022-12-14T18:46:49.736Z,0.41
2022-12-14T18:49:16.556Z,0.39
2022-12-14T18:51:43.893Z,0.31
2022-12-14T18:54:12.087Z,0.27
2022-12-14T18:56:40.730Z,0.30
2022-12-14T18:59:07.792Z,0.32
2022-12-14T19:01:34.746Z,0.35
2022-12-14T19:04:02.009Z,0.32
2022-12-14T19:06:45.519Z,0.30
2022-12-14T19:09:14.905Z,0.34
2022-12-14T19:11:42.441Z,0.36
2022-12-14T19:14:10.127Z,0.35
2022-12-14T19:16:37.534Z,0.35
2022-12-14T19:19:04.371Z,0.36
2022-12-14T19:21:31.414Z,0.39
2022-12-14T19:23:58.692Z,0.45
2022-12-14T19:26:27.240Z,0.44
2022-12-14T19:28:54.259Z,0.40
2022-12-14T19:31:21.198Z,0.38
2022-12-14T19:33:48.179Z,0.38
2022-12-14T19:36:15.056Z,0.37
2022-12-14T19:38:42.151Z,0.38
2022-12-14T19:41:12.032Z,0.39
2022-12-14T19:43:40.252Z,0.42
2022-12-14T19:46:08.890Z,0.39
2022-12-14T19:48:36.659Z,0.34
2022-12-14T19:51:04.546Z,0.30
2022-12-14T19:53:32.173Z,0.27
2022-12-14T19:55:59.375Z,0.28
2022-12-14T19:58:26.933Z,0.30
2022-12-14T20:00:56.454Z,0.31
2022-12-14T20:03:23.922Z,0.33
2022-12-14T20:05:53.239Z,0.33
2022-12-14T20:08:20.417Z,0.31
2022-12-14T20:11:17.507Z,0.30
2022-12-14T20:13:44.551Z,0.34
2022-12-14T20:16:17.572Z,0.36
2022-12-14T20:18:45.946Z,0.31
2022-12-14T20:21:21.908Z,0.28
2022-12-14T20:23:50.523Z,0.28
2022-12-14T20:26:22.234Z,0.25
2022-12-14T20:28:51.246Z,0.20
2022-12-14T20:31:20.263Z,0.18
2022-12-14T20:33:47.965Z,0.17
2022-12-14T20:36:14.913Z,0.18
2022-12-14T20:38:41.814Z,0.18
2022-12-14T20:41:11.224Z,0.21
2022-12-14T20:43:41.099Z,0.25
2022-12-14T20:46:27.404Z,0.28
2022-12-14T20:48:55.223Z,0.26
2022-12-14T20:51:22.758Z,0.26
2022-12-14T20:53:50.142Z,0.23
2022-12-14T20:56:17.263Z,0.23
2022-12-14T20:58:48.214Z,0.26
2022-12-14T21:01:17.373Z,0.20
2022-12-14T21:03:46.386Z,0.24
2022-12-14T21:06:14.680Z,0.22
2022-12-14T21:08:41.965Z,0.24
2022-12-14T21:11:08.950Z,0.22
2022-12-14T21:13:35.744Z,0.20
2022-12-14T21:16:02.555Z,0.23
2022-12-14T21:18:29.445Z,0.21
2022-12-14T21:20:57.697Z,0.24
2022-12-14T21:23:24.869Z,0.22
2022-12-14T21:25:51.789Z,0.19
2022-12-14T21:28:18.667Z,0.20
2022-12-14T21:30:45.632Z,0.23
2022-12-14T21:33:12.487Z,0.24
2022-12-14T21:35:40.412Z,0.27
2022-12-14T21:38:08.646Z,0.27
2022-12-14T21:40:35.461Z,0.26
2022-12-14T21:43:02.254Z,0.26
2022-12-14T21:45:29.447Z,0.19
2022-12-14T21:47:56.300Z,0.20
2022-12-14T21:50:23.237Z,0.19
2022-12-14T21:52:50.291Z,0.22
2022-12-14T21:55:18.706Z,0.23
2022-12-14T21:57:49.663Z,0.16
2022-12-14T22:00:18.406Z,0.18
2022-12-14T22:02:45.325Z,0.20
2022-12-14T22:05:12.317Z,0.16
2022-12-14T22:07:39.206Z,0.15
2022-12-14T22:10:07.290Z,0.12
2022-12-14T22:12:35.511Z,0.10
2022-12-14T22:15:02.346Z,0.09
2022-12-14T22:17:29.311Z,0.04
2022-12-14T22:19:56.122Z,-0.02
2022-12-14T22:22:23.139Z,0.00
2022-12-14T22:24:50.669Z,0.00
2022-12-14T22:27:17.563Z,0.03
2022-12-14T22:29:45.832Z,0.03
2022-12-14T22:32:13.067Z,0.05
2022-12-14T22:34:40.089Z,-0.02
2022-12-14T22:37:07.017Z,-0.04
2022-12-14T22:39:34.351Z,-0.02
2022-12-14T22:42:01.238Z,-0.03
2022-12-14T22:44:28.705Z,-0.04
2022-12-14T22:46:56.813Z,-0.01
2022-12-14T22:49:24.136Z,0.00
2022-12-14T22:51:51.111Z,0.00
2022-12-14T22:54:22.909Z,-0.01
2022-12-14T22:56:58.290Z,-0.02
2022-12-14T22:59:33.588Z,-0.05
2022-12-14T23:02:03.036Z,-0.05
2022-12-14T23:04:30.972Z,-0.04
2022-12-14T23:06:57.813Z,-0.13
2022-12-14T23:09:24.689Z,-0.10
2022-12-14T23:11:52.247Z,-0.10
2022-12-14T23:14:20.224Z,-0.11
2022-12-14T23:16:49.998Z,-0.08
2022-12-14T23:19:18.935Z,-0.04
2022-12-14T23:21:45.842Z,-0.03
2022-12-14T23:24:12.743Z,-0.01
2022-12-14T23:26:40.141Z,-0.05
2022-12-14T23:29:07.002Z,-0.08
2022-12-14T23:31:34.132Z,-0.15
2022-12-14T23:34:00.989Z,-0.14
2022-12-14T23:36:29.267Z,-0.31
2022-12-14T23:38:56.041Z,-0.31
2022-12-14T23:41:22.850Z,-0.29
2022-12-14T23:43:49.604Z,-0.30
2022-12-14T23:46:16.410Z,-0.27
2022-12-14T23:48:43.688Z,-0.24
2022-12-14T23:51:10.416Z,-0.25
2022-12-14T23:53:38.558Z,-0.22
2022-12-14T23:56:05.747Z,-0.17
2022-12-14T23:58:32.802Z,-0.16
